Time;durP1;ratioP1;P1;durP2;ratioP2;P2;SDS_P1;SDS_P2;PMS_P1;PMS_P2;Temp;Humidity;BMP_temperature;BMP_pressure;BME280_temperature;BME280_humidity;BME280_pressure;Samples;Min_cycle;Max_cycle;Signal;HPM_P1;HPM_P2
2022/02/06 00:01:35;;;;;;;2.90;2.10;;;15.60;54.00;;;;;;5122701;28;20467;-85
2022/02/06 00:04:03;;;;;;;3.73;2.10;;;15.60;54.10;;;;;;5122688;28;20475;-85
2022/02/06 00:06:33;;;;;;;4.10;2.30;;;15.60;54.10;;;;;;5122898;28;20448;-85
2022/02/06 00:09:02;;;;;;;1.80;1.70;;;15.60;54.00;;;;;;5122763;28;20486;-85
2022/02/06 00:11:30;;;;;;;2.00;1.90;;;15.60;54.00;;;;;;5122662;28;20489;-84
2022/02/06 00:13:58;;;;;;;4.17;2.00;;;15.60;54.20;;;;;;5122665;28;20793;-84
2022/02/06 00:16:26;;;;;;;2.30;1.80;;;15.60;54.20;;;;;;5122076;28;20471;-85
2022/02/06 00:18:53;;;;;;;2.27;2.07;;;15.60;54.20;;;;;;5116959;28;20459;-84
2022/02/06 00:21:22;;;;;;;3.80;1.67;;;15.60;54.10;;;;;;5121879;28;20440;-85
2022/02/06 00:23:53;;;;;;;2.33;1.73;;;15.60;54.20;;;;;;5116728;28;20455;-82
2022/02/06 00:26:31;;;;;;;5.30;2.07;;;15.60;54.10;;;;;;5120767;28;20427;-83
2022/02/06 00:29:13;;;;;;;4.77;1.90;;;15.60;54.10;;;;;;5121143;28;20444;-83
2022/02/06 00:31:53;;;;;;;3.03;1.50;;;15.60;54.10;;;;;;5120952;28;20464;-83
2022/02/06 00:40:02;;;;;;;2.23;1.80;;;15.60;54.30;;;;;;5121080;28;20500;-83
2022/02/06 00:42:31;;;;;;;2.60;1.70;;;15.60;54.30;;;;;;5121148;28;20455;-83
2022/02/06 00:44:59;;;;;;;1.80;1.67;;;15.60;54.40;;;;;;5120596;28;20475;-83
2022/02/06 00:47:28;;;;;;;2.50;1.80;;;15.60;54.40;;;;;;5120951;28;20496;-83
2022/02/06 00:49:57;;;;;;;4.20;1.90;;;15.60;54.50;;;;;;5120650;28;20554;-83
2022/02/06 00:52:30;;;;;;;6.70;1.67;;;15.60;54.60;;;;;;5120970;28;20467;-83
2022/02/06 00:54:59;;;;;;;2.37;2.00;;;15.60;54.50;;;;;;5121014;28;20475;-83
2022/02/06 00:57:27;;;;;;;3.00;1.90;;;15.60;54.40;;;;;;5120654;28;20471;-83
2022/02/06 00:59:57;;;;;;;1.70;1.60;;;15.70;54.50;;;;;;5120678;28;20454;-83
2022/02/06 01:02:24;;;;;;;2.87;1.77;;;15.60;54.40;;;;;;5121264;28;20416;-83
2022/02/06 01:04:52;;;;;;;2.40;1.80;;;15.60;54.50;;;;;;5120331;28;20451;-83
2022/02/06 01:07:20;;;;;;;1.73;1.50;;;15.70;54.60;;;;;;5118969;28;20448;-84
2022/02/06 01:09:48;;;;;;;2.00;1.70;;;15.70;54.50;;;;;;5119948;28;20459;-83
2022/02/06 01:12:20;;;;;;;1.60;1.50;;;15.70;54.60;;;;;;5120344;28;20467;-84
2022/02/06 01:15:01;;;;;;;5.33;1.60;;;15.60;54.60;;;;;;5119703;28;20498;-83
2022/02/06 01:17:35;;;;;;;2.93;1.33;;;15.60;54.60;;;;;;5120530;28;20456;-84
2022/02/06 01:20:08;;;;;;;1.67;1.57;;;15.70;54.70;;;;;;5120245;28;20468;-83
2022/02/06 01:22:49;;;;;;;2.07;1.93;;;15.70;54.60;;;;;;5120079;28;20444;-83
2022/02/06 01:25:22;;;;;;;1.70;1.60;;;15.70;54.80;;;;;;5120075;28;20501;-83
2022/02/06 01:27:56;;;;;;;2.10;1.30;;;15.70;54.80;;;;;;5120056;28;20416;-83
2022/02/06 01:30:31;;;;;;;1.73;1.63;;;15.70;54.70;;;;;;5119983;28;20412;-83
2022/02/06 01:33:06;;;;;;;1.37;1.27;;;15.70;54.70;;;;;;5120118;28;20478;-83
2022/02/06 01:35:40;;;;;;;1.70;1.60;;;15.70;54.70;;;;;;5120308;28;20486;-83
2022/02/06 01:38:17;;;;;;;4.20;1.50;;;15.70;54.80;;;;;;5120502;28;20411;-83
2022/02/06 01:40:57;;;;;;;1.57;1.33;;;15.70;54.60;;;;;;5120021;28;20440;-83
2022/02/06 01:43:36;;;;;;;2.10;1.60;;;15.70;54.70;;;;;;5119948;28;20479;-83
2022/02/06 01:46:21;;;;;;;2.70;1.63;;;15.70;54.80;;;;;;5120244;28;20431;-83
2022/02/06 02:06:03;;;;;;;2.53;1.50;;;15.70;55.00;;;;;;5107944;28;20467;-83
2022/02/06 02:11:39;;;;;;;1.40;1.30;;;15.70;55.00;;;;;;5119808;28;20436;-83
2022/02/06 02:17:19;;;;;;;1.30;1.20;;;15.70;55.00;;;;;;5106481;28;20510;-83
2022/02/06 02:23:12;;;;;;;2.93;1.40;;;15.70;54.90;;;;;;5036077;28;20431;-83
2022/02/06 02:26:07;;;;;;;1.40;1.30;;;15.70;55.00;;;;;;5035966;28;20487;-83
2022/02/06 02:31:50;;;;;;;1.50;1.40;;;15.70;55.00;;;;;;5118521;28;20543;-83
2022/02/06 02:45:37;;;;;;;2.70;1.60;;;15.70;55.20;;;;;;5119302;28;20554;-83
2022/02/06 02:48:06;;;;;;;1.83;1.20;;;15.70;55.20;;;;;;5108356;28;20451;-84
2022/02/06 02:50:38;;;;;;;1.80;1.23;;;15.70;55.30;;;;;;5117131;28;20428;-84
2022/02/06 02:53:13;;;;;;;2.80;1.40;;;15.70;55.20;;;;;;5118550;28;20554;-84
2022/02/06 02:55:57;;;;;;;1.60;1.50;;;15.70;55.20;;;;;;5120969;28;20494;-84
2022/02/06 02:58:42;;;;;;;2.20;1.23;;;15.80;55.30;;;;;;5119884;28;20405;-83
2022/02/06 03:01:16;;;;;;;1.93;1.00;;;15.80;55.30;;;;;;5119274;28;20489;-83
2022/02/06 03:03:44;;;;;;;2.50;1.30;;;15.80;55.20;;;;;;5118111;28;20468;-84
2022/02/06 03:06:12;;;;;;;1.50;1.20;;;15.80;55.20;;;;;;5118600;28;20436;-84
2022/02/06 03:08:41;;;;;;;2.50;1.67;;;15.80;55.20;;;;;;5119017;28;20428;-84
2022/02/06 03:11:11;;;;;;;2.10;1.27;;;15.80;55.30;;;;;;5119072;28;20450;-84
2022/02/06 03:13:45;;;;;;;1.40;1.27;;;15.80;55.30;;;;;;5118826;28;20468;-84
2022/02/06 03:16:21;;;;;;;1.50;1.30;;;15.80;55.20;;;;;;5118507;28;20452;-83
2022/02/06 03:18:56;;;;;;;5.33;1.50;;;15.80;55.30;;;;;;5118468;28;20487;-84
2022/02/06 03:21:27;;;;;;;1.30;1.20;;;15.80;55.40;;;;;;5118514;28;20486;-84
2022/02/06 03:23:57;;;;;;;1.57;1.30;;;15.80;55.40;;;;;;5118406;28;20452;-84
2022/02/06 03:26:26;;;;;;;1.40;1.30;;;15.80;55.30;;;;;;5119305;28;20500;-83
2022/02/06 03:28:55;;;;;;;1.53;1.20;;;15.80;55.30;;;;;;5118678;28;20482;-83
2022/02/06 03:31:23;;;;;;;1.70;1.20;;;15.90;55.40;;;;;;5117525;28;20432;-83
2022/02/06 03:33:51;;;;;;;2.13;1.27;;;15.80;55.30;;;;;;5118095;28;20550;-83
2022/02/06 03:36:19;;;;;;;1.47;1.30;;;15.80;55.30;;;;;;5117593;28;20513;-83
2022/02/06 03:38:48;;;;;;;1.40;1.07;;;15.80;55.30;;;;;;5117873;28;20508;-83
2022/02/06 03:41:17;;;;;;;6.30;1.60;;;15.80;55.30;;;;;;5117588;28;20482;-83
2022/02/06 03:43:59;;;;;;;1.50;1.40;;;15.80;55.30;;;;;;5117567;28;20455;-83
2022/02/06 03:46:31;;;;;;;3.23;1.60;;;15.80;55.30;;;;;;5117703;28;20420;-83
2022/02/06 03:49:07;;;;;;;1.30;1.20;;;15.80;55.40;;;;;;5117864;28;20478;-83
2022/02/06 03:51:37;;;;;;;4.40;1.50;;;15.80;55.40;;;;;;5117412;28;20498;-83
2022/02/06 03:54:05;;;;;;;1.37;1.27;;;15.90;55.50;;;;;;5134103;28;20553;-83
2022/02/06 03:56:33;;;;;;;2.50;1.40;;;15.80;55.40;;;;;;5137923;28;20474;-83
2022/02/06 03:59:03;;;;;;;2.70;1.27;;;15.80;55.40;;;;;;5138016;28;20474;-83
2022/02/06 04:01:31;;;;;;;2.70;1.20;;;15.90;55.50;;;;;;5139437;28;20494;-85
2022/02/06 04:03:58;;;;;;;1.60;1.50;;;15.80;55.50;;;;;;5139574;28;20482;-85
2022/02/06 04:06:28;;;;;;;1.30;1.20;;;15.80;55.50;;;;;;5140830;28;20427;-83
2022/02/06 04:08:57;;;;;;;3.43;1.10;;;15.90;55.50;;;;;;5133056;28;20440;-83
2022/02/06 04:11:34;;;;;;;1.57;1.10;;;15.90;55.50;;;;;;5117585;28;20481;-83
2022/02/06 04:14:10;;;;;;;2.30;1.27;;;15.90;55.50;;;;;;5117212;28;20475;-83
2022/02/06 04:16:41;;;;;;;1.40;1.23;;;15.90;55.60;;;;;;5117373;28;20447;-83
2022/02/06 04:19:19;;;;;;;1.37;1.27;;;15.90;55.60;;;;;;5116900;28;20500;-83
2022/02/06 04:21:47;;;;;;;3.33;1.40;;;15.90;55.50;;;;;;5116384;28;20466;-83
2022/02/06 04:24:15;;;;;;;2.03;1.57;;;15.90;55.50;;;;;;5116926;28;20495;-83
2022/02/06 04:26:43;;;;;;;2.20;1.40;;;15.90;55.60;;;;;;5117498;28;20424;-83
2022/02/06 04:29:12;;;;;;;1.80;1.17;;;15.90;55.60;;;;;;5117499;28;20460;-83
2022/02/06 04:31:41;;;;;;;1.43;1.33;;;15.90;55.60;;;;;;5117371;28;20489;-83
2022/02/06 04:34:09;;;;;;;2.67;1.33;;;15.90;55.50;;;;;;5116898;28;20499;-83
2022/02/06 04:36:44;;;;;;;2.23;1.23;;;15.90;55.60;;;;;;5117056;28;20479;-83
2022/02/06 04:39:42;;;;;;;1.70;1.17;;;15.90;55.50;;;;;;5117565;28;20512;-83
2022/02/06 04:42:19;;;;;;;1.00;1.00;;;15.90;55.60;;;;;;5119099;28;20450;-83
2022/02/06 04:45:19;;;;;;;3.23;1.60;;;15.90;55.50;;;;;;5120808;28;20475;-83
2022/02/06 04:48:10;;;;;;;1.00;1.00;;;15.90;55.60;;;;;;5121422;28;20452;-83
2022/02/06 05:15:47;;;;;;;1.40;1.30;;;15.90;55.80;;;;;;5113056;28;20472;-83
2022/02/06 05:21:32;;;;;;;4.23;1.40;;;15.90;55.80;;;;;;5120239;28;20409;-83
2022/02/06 05:26:57;;;;;;;1.43;1.33;;;16.00;56.00;;;;;;5119820;28;20523;-83
2022/02/06 05:29:33;;;;;;;4.30;1.40;;;16.00;56.50;;;;;;5103709;28;20479;-83
2022/02/06 05:32:14;;;;;;;5.00;1.63;;;16.00;56.00;;;;;;5099288;28;20432;-83
2022/02/06 05:34:43;;;;;;;2.73;1.10;;;16.00;55.90;;;;;;5099221;28;20583;-83
2022/02/06 05:37:15;;;;;;;2.57;1.30;;;16.00;56.00;;;;;;5099181;28;20445;-83
2022/02/06 05:39:42;;;;;;;2.40;1.30;;;16.00;56.00;;;;;;5099270;28;20476;-83
2022/02/06 05:42:10;;;;;;;3.40;1.40;;;16.00;56.00;;;;;;5099108;28;20449;-83
2022/02/06 05:44:38;;;;;;;1.67;1.30;;;16.00;56.00;;;;;;5099005;28;20449;-83
2022/02/06 05:47:06;;;;;;;2.33;1.40;;;16.00;56.00;;;;;;5098810;28;20539;-83
2022/02/06 05:49:34;;;;;;;3.77;1.47;;;16.00;56.00;;;;;;5098747;28;20547;-83
2022/02/06 05:52:03;;;;;;;3.73;1.60;;;16.00;56.00;;;;;;5099190;28;20468;-83
2022/02/06 05:54:31;;;;;;;1.83;1.40;;;16.00;56.00;;;;;;5098915;28;20504;-83
2022/02/06 05:56:59;;;;;;;2.60;1.30;;;16.00;56.00;;;;;;5098919;28;20973;-83
2022/02/06 05:59:27;;;;;;;3.60;1.60;;;16.00;56.00;;;;;;5098927;28;20495;-83
2022/02/06 06:01:55;;;;;;;2.07;1.30;;;16.00;56.00;;;;;;5099065;28;20437;-83
2022/02/06 06:04:25;;;;;;;5.17;1.70;;;16.10;56.10;;;;;;5098708;28;20556;-83
2022/02/06 06:06:52;;;;;;;2.83;1.60;;;16.10;56.00;;;;;;5098793;28;20476;-83
2022/02/06 06:09:21;;;;;;;2.23;1.40;;;16.10;56.10;;;;;;5098612;28;20472;-83
2022/02/06 06:11:50;;;;;;;4.40;1.87;;;16.10;56.20;;;;;;5098422;28;20439;-83
2022/02/06 06:14:17;;;;;;;3.33;1.20;;;16.10;56.20;;;;;;5098582;28;20471;-83
2022/02/06 06:16:45;;;;;;;2.97;1.80;;;16.10;56.20;;;;;;5098408;28;20464;-83
2022/02/06 06:19:13;;;;;;;1.90;1.33;;;16.10;56.10;;;;;;5098353;28;20487;-83
2022/02/06 06:21:44;;;;;;;3.67;1.30;;;16.10;56.10;;;;;;5099540;28;20449;-84
2022/02/06 06:24:16;;;;;;;2.63;1.53;;;16.10;56.20;;;;;;5098576;28;20453;-83
2022/02/06 06:26:45;;;;;;;2.40;1.50;;;16.10;56.20;;;;;;5098371;28;20417;-83
2022/02/06 06:29:13;;;;;;;2.70;1.70;;;16.10;56.20;;;;;;5098439;28;20433;-83
2022/02/06 06:31:41;;;;;;;4.73;1.57;;;16.10;56.20;;;;;;5097859;28;20544;-83
2022/02/06 06:34:09;;;;;;;2.57;1.40;;;16.10;56.20;;;;;;5097819;28;20542;-83
2022/02/06 06:36:37;;;;;;;3.23;1.23;;;16.10;56.20;;;;;;5098849;28;20457;-83
2022/02/06 06:39:05;;;;;;;4.53;1.53;;;16.10;56.30;;;;;;5113309;28;20444;-83
2022/02/06 06:41:54;;;;;;;2.20;1.63;;;16.10;56.20;;;;;;5098290;28;20425;-84
2022/02/06 06:44:22;;;;;;;2.93;1.50;;;16.10;56.30;;;;;;5098496;28;20488;-84
2022/02/06 06:46:50;;;;;;;3.73;1.90;;;16.10;56.20;;;;;;5097782;28;20441;-84
2022/02/06 06:49:18;;;;;;;2.37;1.63;;;16.10;56.30;;;;;;5097364;28;20559;-83
2022/02/06 06:51:46;;;;;;;1.80;1.30;;;16.10;56.20;;;;;;5097470;28;20471;-83
2022/02/06 06:54:18;;;;;;;4.90;1.73;;;16.10;56.30;;;;;;5097662;28;20468;-83
2022/02/06 06:56:52;;;;;;;2.03;1.60;;;16.10;56.40;;;;;;5097917;28;20496;-83
2022/02/06 06:59:32;;;;;;;3.30;1.10;;;16.10;56.30;;;;;;5098289;28;20496;-84
2022/02/06 07:02:17;;;;;;;4.17;1.67;;;16.10;56.40;;;;;;5098302;28;20451;-83
2022/02/06 07:04:46;;;;;;;2.20;1.33;;;16.10;56.40;;;;;;5097402;28;20473;-83
2022/02/06 07:07:14;;;;;;;4.27;1.83;;;16.10;56.40;;;;;;5100742;27;20500;-83
2022/02/06 07:09:42;;;;;;;2.83;1.63;;;16.10;56.50;;;;;;5118158;28;20493;-83
2022/02/06 07:12:13;;;;;;;3.93;1.43;;;16.10;56.40;;;;;;5105821;28;20484;-83
2022/02/06 07:14:42;;;;;;;3.50;1.60;;;16.10;56.40;;;;;;5108623;28;20448;-83
2022/02/06 07:17:10;;;;;;;3.17;1.60;;;16.10;56.40;;;;;;5118032;28;20435;-83
2022/02/06 07:19:38;;;;;;;4.63;1.60;;;16.10;57.10;;;;;;5117204;28;20444;-83
2022/02/06 07:22:07;;;;;;;3.03;1.50;;;16.10;56.50;;;;;;5117233;28;20435;-83
2022/02/06 07:24:36;;;;;;;2.83;1.63;;;16.10;56.40;;;;;;5117500;28;20511;-83
2022/02/06 07:27:17;;;;;;;4.73;1.87;;;16.10;56.40;;;;;;5116617;28;20482;-83
2022/02/06 07:29:46;;;;;;;3.83;1.53;;;16.10;56.50;;;;;;5108764;28;20463;-83
2022/02/06 07:32:14;;;;;;;4.97;1.77;;;16.10;56.50;;;;;;5117415;28;20434;-83
2022/02/06 07:34:42;;;;;;;2.87;1.70;;;16.20;56.50;;;;;;5117877;28;20486;-83
2022/02/06 07:37:10;;;;;;;4.23;2.00;;;16.10;56.40;;;;;;5120333;28;20443;-83
2022/02/06 07:39:38;;;;;;;4.80;2.00;;;16.10;56.50;;;;;;5119381;28;20428;-83
2022/02/06 07:42:09;;;;;;;8.40;1.60;;;16.20;56.60;;;;;;5117478;28;20505;-84
2022/02/06 07:44:37;;;;;;;2.83;1.57;;;16.20;56.60;;;;;;5110777;28;20496;-83
2022/02/06 07:47:14;;;;;;;5.87;1.97;;;16.20;56.60;;;;;;5112074;28;20471;-83
2022/02/06 07:49:44;;;;;;;3.03;1.60;;;16.20;56.50;;;;;;5117110;28;20550;-83
2022/02/06 07:52:11;;;;;;;3.53;1.93;;;16.20;56.40;;;;;;5117755;28;20460;-83
2022/02/06 07:54:39;;;;;;;2.70;1.53;;;16.20;56.40;;;;;;5117947;28;20505;-83
2022/02/06 07:57:07;;;;;;;5.23;1.93;;;16.20;56.40;;;;;;5117357;28;20499;-83
2022/02/06 07:59:35;;;;;;;4.33;1.70;;;16.20;56.50;;;;;;5109118;28;20532;-82
2022/02/06 08:02:07;;;;;;;3.07;1.50;;;16.30;56.50;;;;;;5117446;28;20471;-83
2022/02/06 08:04:35;;;;;;;8.33;2.10;;;16.30;56.50;;;;;;5117221;28;20495;-83
2022/02/06 08:07:03;;;;;;;3.80;1.60;;;16.30;56.50;;;;;;5118280;28;20467;-84
2022/02/06 08:09:48;;;;;;;3.43;1.57;;;16.30;56.40;;;;;;5117636;28;20495;-83
2022/02/06 08:12:16;;;;;;;3.00;1.53;;;16.30;56.50;;;;;;5116558;28;20475;-83
2022/02/06 08:14:51;;;;;;;5.07;1.90;;;16.30;56.50;;;;;;5116872;28;20491;-84
2022/02/06 08:17:24;;;;;;;2.80;1.67;;;16.30;56.50;;;;;;5118289;28;20545;-82
2022/02/06 08:19:52;;;;;;;3.80;1.90;;;16.40;56.70;;;;;;5121230;28;20516;-84
2022/02/06 08:22:19;;;;;;;3.47;1.90;;;16.40;56.60;;;;;;5120854;28;20460;-84
2022/02/06 08:24:48;;;;;;;2.87;1.80;;;16.30;56.50;;;;;;5121211;28;20554;-83
2022/02/06 08:27:16;;;;;;;3.03;1.73;;;16.40;56.50;;;;;;5121809;28;20436;-83
2022/02/06 08:29:45;;;;;;;3.27;1.60;;;16.40;56.50;;;;;;5121306;28;20432;-83
2022/02/06 08:32:14;;;;;;;8.10;2.00;;;16.40;56.50;;;;;;5103979;28;20491;-84
2022/02/06 08:34:48;;;;;;;7.00;1.80;;;16.50;56.60;;;;;;5101010;28;20452;-84
2022/02/06 08:37:16;;;;;;;5.60;2.03;;;16.50;56.40;;;;;;5104261;28;20475;-83
2022/02/06 08:39:44;;;;;;;2.87;1.40;;;16.50;56.40;;;;;;5100457;28;20455;-82
2022/02/06 08:42:12;;;;;;;7.83;1.60;;;16.50;56.30;;;;;;5105041;28;20474;-83
2022/02/06 08:44:41;;;;;;;2.33;1.50;;;16.50;56.30;;;;;;5120711;28;20448;-83
2022/02/06 08:47:09;;;;;;;4.80;1.40;;;16.50;56.50;;;;;;5120456;28;20435;-83
2022/02/06 08:49:38;;;;;;;3.73;1.80;;;16.50;56.40;;;;;;5121720;28;20467;-82
2022/02/06 08:52:08;;;;;;;7.03;1.80;;;16.50;56.50;;;;;;5115712;28;20424;-82
2022/02/06 08:54:37;;;;;;;6.20;1.50;;;16.50;56.50;;;;;;5102201;28;20460;-82
2022/02/06 08:57:19;;;;;;;6.23;1.73;;;16.50;56.50;;;;;;5097986;28;20473;-82
2022/02/06 08:59:47;;;;;;;4.27;1.60;;;16.50;56.50;;;;;;5104200;28;20429;-82
2022/02/06 09:02:15;;;;;;;3.97;1.60;;;16.50;56.60;;;;;;5117835;27;20489;-82
2022/02/06 09:04:44;;;;;;;4.30;1.70;;;16.50;56.50;;;;;;5146122;27;20446;-87
2022/02/06 09:07:13;;;;;;;3.57;2.00;;;16.50;56.50;;;;;;5131371;28;20420;-84
2022/02/06 09:09:45;;;;;;;3.70;1.83;;;16.50;56.50;;;;;;5133663;28;20442;-82
2022/02/06 09:12:13;;;;;;;2.47;1.63;;;16.50;56.60;;;;;;5133848;28;20416;-84
2022/02/06 09:14:41;;;;;;;2.57;1.77;;;16.50;56.60;;;;;;5133822;28;20443;-83
2022/02/06 09:17:10;;;;;;;4.20;1.97;;;16.50;56.60;;;;;;5134009;28;20479;-83
2022/02/06 09:19:39;;;;;;;6.07;2.10;;;16.50;57.20;;;;;;5133164;28;20443;-84
2022/02/06 09:22:08;;;;;;;5.80;2.10;;;16.50;56.60;;;;;;5131475;28;20413;-84
2022/02/06 09:24:38;;;;;;;2.70;1.60;;;16.50;56.60;;;;;;5104030;28;20465;-84
2022/02/06 09:27:06;;;;;;;3.77;1.80;;;16.50;56.80;;;;;;5106360;28;20444;-84
2022/02/06 09:29:34;;;;;;;2.50;1.80;;;16.50;56.70;;;;;;5118955;28;20804;-84
2022/02/06 09:37:17;;;;;;;3.53;1.73;;;16.50;56.70;;;;;;5119096;28;20512;-83
2022/02/06 09:39:46;;;;;;;4.10;1.70;;;16.50;56.80;;;;;;5112309;28;20440;-83
2022/02/06 09:42:14;;;;;;;7.27;1.73;;;16.50;56.80;;;;;;5114171;28;20477;-84
2022/02/06 09:44:42;;;;;;;2.13;1.30;;;16.50;56.80;;;;;;5125511;28;20468;-85
2022/02/06 09:47:10;;;;;;;3.07;1.37;;;16.50;57.00;;;;;;5121213;28;20444;-84
2022/02/06 09:49:37;;;;;;;5.00;1.60;;;16.50;56.90;;;;;;5120103;28;20452;-85
2022/02/06 09:52:06;;;;;;;8.70;1.90;;;16.50;56.90;;;;;;5119832;28;20448;-84
2022/02/06 09:54:34;;;;;;;3.33;1.80;;;16.50;57.00;;;;;;5120573;28;20463;-84
2022/02/06 09:57:11;;;;;;;8.53;2.00;;;16.50;56.90;;;;;;5122105;27;20572;-85
2022/02/06 09:59:40;;;;;;;7.77;1.50;;;16.50;56.90;;;;;;5119661;28;20432;-83
2022/02/06 10:02:08;;;;;;;5.20;1.50;;;16.50;57.00;;;;;;5123606;28;20472;-83
2022/02/06 10:04:36;;;;;;;2.63;1.50;;;16.50;57.00;;;;;;5123484;28;20820;-83
2022/02/06 10:07:06;;;;;;;4.50;1.67;;;16.50;56.90;;;;;;5123472;28;20440;-83
2022/02/06 10:09:39;;;;;;;4.50;1.57;;;16.50;57.00;;;;;;5122886;28;20444;-84
2022/02/06 10:12:58;;;;;;;3.20;1.40;;;16.50;56.90;;;;;;5125551;28;20474;-86
2022/02/06 10:15:27;;;;;;;3.37;1.53;;;16.50;57.00;;;;;;5110121;28;20487;-87
2022/02/06 10:17:56;;;;;;;3.97;1.97;;;16.50;57.00;;;;;;5116909;28;20525;-85
2022/02/06 10:20:29;;;;;;;22.83;5.30;;;16.50;57.00;;;;;;5112143;28;20437;-83
2022/02/06 10:23:01;;;;;;;16.77;5.83;;;16.90;60.70;;;;;;5119760;28;20449;-84
2022/02/06 10:25:29;;;;;;;29.23;7.50;;;17.20;60.00;;;;;;5115668;27;20460;-82
2022/02/06 10:30:43;;;;;;;36.00;7.03;;;18.40;66.80;;;;;;5124773;27;20482;-86
2022/02/06 10:33:11;;;;;;;24.90;7.23;;;19.00;65.80;;;;;;5125026;27;20432;-82
2022/02/06 10:35:40;;;;;;;19.07;6.33;;;19.50;65.20;;;;;;5139058;27;20812;-85
2022/02/06 10:38:16;;;;;;;34.13;7.00;;;19.80;64.40;;;;;;5145760;27;20474;-84
2022/02/06 10:40:44;;;;;;;23.77;6.80;;;20.10;64.10;;;;;;5141876;27;20431;-81
2022/02/06 10:43:12;;;;;;;25.27;6.27;;;20.40;63.10;;;;;;5123721;27;20428;-82
2022/02/06 10:45:44;;;;;;;18.87;5.83;;;20.50;62.90;;;;;;5137299;27;20475;-82
2022/02/06 10:48:20;;;;;;;27.70;7.60;;;20.70;62.20;;;;;;5110026;28;20441;-82
2022/02/06 10:50:48;;;;;;;19.33;5.90;;;20.80;61.60;;;;;;5121166;28;20406;-80
2022/02/06 10:53:16;;;;;;;26.23;6.53;;;20.90;61.50;;;;;;5120250;28;20432;-79
2022/02/06 10:55:56;;;;;;;30.20;5.60;;;21.00;61.10;;;;;;5119597;28;20985;-80
2022/02/06 10:58:28;;;;;;;17.83;5.53;;;21.10;60.60;;;;;;5120688;28;20497;-80
2022/02/06 11:00:57;;;;;;;14.27;4.80;;;21.20;60.20;;;;;;5124757;28;20448;-82
2022/02/06 11:03:30;;;;;;;21.70;6.10;;;21.20;59.70;;;;;;5111906;28;20475;-83
2022/02/06 11:06:07;;;;;;;30.07;5.60;;;21.30;59.80;;;;;;5124859;28;20432;-78
2022/02/06 11:08:38;;;;;;;21.87;5.20;;;21.30;59.60;;;;;;5125311;28;20461;-82
2022/02/06 11:11:07;;;;;;;17.17;5.30;;;21.40;59.30;;;;;;5128515;28;20420;-81
2022/02/06 11:13:35;;;;;;;15.97;4.97;;;21.40;58.80;;;;;;5124565;28;20508;-78
2022/02/06 11:16:15;;;;;;;16.10;4.90;;;21.40;58.80;;;;;;5122084;28;20456;-80
2022/02/06 11:18:49;;;;;;;17.40;4.73;;;21.40;59.00;;;;;;5114190;28;20467;-82
2022/02/06 11:21:19;;;;;;;23.80;4.43;;;21.50;58.90;;;;;;5110720;28;20443;-83
2022/02/06 11:23:48;;;;;;;26.40;5.17;;;21.60;59.00;;;;;;5119829;28;20456;-83
2022/02/06 11:26:17;;;;;;;23.27;4.80;;;21.50;59.50;;;;;;5119393;28;20428;-83
2022/02/06 11:28:45;;;;;;;15.03;5.20;;;21.50;58.70;;;;;;5119105;28;20424;-82
2022/02/06 11:31:16;;;;;;;26.93;5.90;;;21.60;59.10;;;;;;5117726;28;20454;-80
2022/02/06 11:33:44;;;;;;;20.13;6.43;;;21.70;59.00;;;;;;5112426;28;20463;-82
2022/02/06 11:36:17;;;;;;;19.93;7.33;;;21.80;59.50;;;;;;5114881;28;20458;-80
2022/02/06 11:45:03;;;;;;;21.13;6.77;;;22.10;61.10;;;;;;5100692;28;20480;-83
2022/02/06 11:47:34;;;;;;;19.90;6.60;;;22.10;61.60;;;;;;5094727;28;20435;-81
2022/02/06 11:50:06;;;;;;;17.53;6.83;;;22.10;61.50;;;;;;5125089;28;20435;-80
2022/02/06 11:52:54;;;;;;;25.20;6.40;;;22.10;61.40;;;;;;5126342;28;20446;-80
2022/02/06 11:55:38;;;;;;;19.37;5.93;;;22.20;61.40;;;;;;5125572;28;20440;-80
2022/02/06 11:58:25;;;;;;;14.03;5.73;;;22.20;61.20;;;;;;5121136;28;20514;-83
2022/02/06 12:01:22;;;;;;;13.73;3.53;;;22.20;60.20;;;;;;5118817;28;20425;-82
2022/02/06 12:03:54;;;;;;;8.80;3.60;;;21.20;56.60;;;;;;5121503;28;20495;-82
2022/02/06 12:06:24;;;;;;;7.27;3.17;;;20.60;56.70;;;;;;5121626;28;20423;-81
2022/02/06 12:09:16;;;;;;;10.17;3.17;;;20.30;57.20;;;;;;5121795;28;20427;-80
2022/02/06 12:12:21;;;;;;;8.77;3.53;;;20.10;56.20;;;;;;5126452;28;20421;-82
2022/02/06 12:15:09;;;;;;;4.80;2.77;;;19.90;56.00;;;;;;5121345;28;20451;-82
2022/02/06 12:17:45;;;;;;;6.73;2.57;;;19.80;55.90;;;;;;5118544;28;20490;-80
2022/02/06 12:20:16;;;;;;;5.20;2.50;;;19.70;55.50;;;;;;5117878;28;20456;-81
2022/02/06 12:22:45;;;;;;;5.47;2.60;;;19.60;55.00;;;;;;5119283;28;20431;-83
2022/02/06 12:25:25;;;;;;;8.13;2.60;;;19.50;54.70;;;;;;5122392;28;20547;-84
2022/02/06 12:27:53;;;;;;;5.93;2.90;;;19.30;54.20;;;;;;5122143;28;20416;-80
2022/02/06 12:30:23;;;;;;;6.10;2.43;;;19.10;54.40;;;;;;5122738;28;20435;-80
2022/02/06 12:32:51;;;;;;;7.30;3.23;;;18.90;52.90;;;;;;5120839;28;20432;-80
2022/02/06 12:38:12;;;;;;;3.80;2.10;;;17.90;51.80;;;;;;5121036;28;20496;-83
2022/02/06 12:40:40;;;;;;;1.73;1.63;;;17.40;50.90;;;;;;5122676;28;20439;-84
2022/02/06 12:43:08;;;;;;;1.83;1.63;;;17.10;50.00;;;;;;5121736;28;20475;-83
2022/02/06 12:45:37;;;;;;;1.20;1.10;;;16.60;51.30;;;;;;5124336;28;20463;-83
2022/02/06 12:48:07;;;;;;;1.93;1.20;;;16.40;51.50;;;;;;5121462;28;20443;-83
2022/02/06 12:50:38;;;;;;;3.67;0.90;;;15.90;51.40;;;;;;5124218;28;20440;-86
2022/02/06 12:53:09;;;;;;;1.40;1.30;;;15.80;51.60;;;;;;5125058;28;20504;-83
2022/02/06 12:55:38;;;;;;;1.67;1.57;;;15.70;52.90;;;;;;5124664;28;20521;-83
2022/02/06 12:58:07;;;;;;;1.90;1.80;;;15.30;52.00;;;;;;5122880;28;20472;-84
2022/02/06 13:00:39;;;;;;;1.47;1.40;;;15.30;52.30;;;;;;5127343;28;20444;-86
2022/02/06 13:03:23;;;;;;;1.40;1.20;;;14.90;53.00;;;;;;5127118;28;20427;-86
2022/02/06 13:05:54;;;;;;;1.40;1.30;;;14.80;53.70;;;;;;5128173;28;20489;-86
2022/02/06 13:08:22;;;;;;;2.00;1.90;;;14.60;53.80;;;;;;5126222;28;20448;-86
2022/02/06 13:10:54;;;;;;;4.30;1.70;;;14.70;54.40;;;;;;5128597;28;20454;-86
2022/02/06 13:13:28;;;;;;;6.77;3.47;;;14.70;54.60;;;;;;5129474;28;20456;-86
2022/02/06 13:16:40;;;;;;;7.93;4.10;;;14.60;54.10;;;;;;5129416;28;20494;-86
2022/02/06 13:19:20;;;;;;;5.57;3.73;;;14.80;54.50;;;;;;5130118;28;20464;-86
2022/02/06 13:22:23;;;;;;;4.53;3.13;;;14.80;54.60;;;;;;5127583;28;20440;-86
2022/02/06 13:25:09;;;;;;;4.03;2.77;;;14.70;54.80;;;;;;5119645;28;20465;-86
2022/02/06 13:28:00;;;;;;;2.73;1.60;;;14.60;54.70;;;;;;5120868;28;20458;-86
2022/02/06 13:30:47;;;;;;;3.10;1.13;;;14.50;54.40;;;;;;5123813;28;20440;-86
2022/02/06 13:33:31;;;;;;;2.50;1.17;;;14.20;55.50;;;;;;5116047;28;20479;-86
2022/02/06 13:36:10;;;;;;;3.30;1.40;;;14.10;55.60;;;;;;5129123;28;20452;-87
2022/02/06 13:38:39;;;;;;;5.57;1.53;;;13.90;56.90;;;;;;5117850;28;20471;-86
2022/02/06 13:41:12;;;;;;;2.03;1.40;;;14.00;56.80;;;;;;5123735;28;20447;-86
2022/02/06 13:43:41;;;;;;;2.40;1.10;;;13.80;56.60;;;;;;5123159;28;20445;-86
2022/02/06 13:46:15;;;;;;;3.80;1.03;;;13.70;56.80;;;;;;5131536;27;20470;-86
2022/02/06 13:48:46;;;;;;;1.77;1.20;;;13.80;57.80;;;;;;5127102;28;20439;-87
2022/02/06 13:51:14;;;;;;;4.03;1.23;;;13.70;57.40;;;;;;5128592;27;20471;-87
2022/02/06 13:53:55;;;;;;;2.00;1.10;;;13.70;58.00;;;;;;5124385;28;20440;-87
2022/02/06 13:56:23;;;;;;;1.63;1.20;;;13.20;58.30;;;;;;5123883;28;20486;-87
2022/02/06 13:58:59;;;;;;;2.23;1.10;;;12.90;58.80;;;;;;5126216;27;20456;-86
2022/02/06 14:01:37;;;;;;;1.97;1.20;;;13.10;59.30;;;;;;5129090;28;20435;-87
2022/02/06 14:04:06;;;;;;;4.00;1.10;;;13.30;59.20;;;;;;5129222;28;20466;-87
2022/02/06 14:06:36;;;;;;;5.20;1.60;;;13.20;59.10;;;;;;5120555;28;20433;-87
2022/02/06 14:09:27;;;;;;;2.80;1.23;;;13.20;61.00;;;;;;5107949;28;20425;-87
2022/02/06 14:12:02;;;;;;;1.60;1.03;;;13.50;59.60;;;;;;5109357;28;20432;-87
2022/02/06 14:14:31;;;;;;;1.50;1.30;;;13.60;60.00;;;;;;5115468;28;20463;-87
2022/02/06 14:17:21;;;;;;;3.17;1.53;;;13.80;57.70;;;;;;5120205;28;20472;-87
2022/02/06 14:19:49;;;;;;;2.40;1.30;;;13.90;58.40;;;;;;5118580;28;20592;-87
2022/02/06 14:22:28;;;;;;;4.30;1.47;;;13.80;57.80;;;;;;5122142;28;20440;-87
2022/02/06 14:24:58;;;;;;;1.30;1.17;;;13.60;58.00;;;;;;5114326;28;20499;-87
2022/02/06 14:27:28;;;;;;;3.87;1.50;;;13.00;60.00;;;;;;5106462;28;20441;-87
2022/02/06 14:30:18;;;;;;;5.70;1.20;;;13.10;59.70;;;;;;5114661;28;20440;-87
2022/02/06 14:32:57;;;;;;;3.37;1.20;;;13.20;59.70;;;;;;5119972;28;20470;-88
2022/02/06 14:35:28;;;;;;;4.23;1.40;;;13.10;59.50;;;;;;5122265;28;20508;-87
2022/02/06 14:37:59;;;;;;;5.20;1.87;;;13.20;59.90;;;;;;5123113;28;21007;-87
2022/02/06 14:40:38;;;;;;;4.23;1.17;;;12.90;60.20;;;;;;5112955;28;20461;-87
2022/02/06 14:43:11;;;;;;;8.27;2.97;;;13.00;61.50;;;;;;5119179;28;20439;-87
2022/02/06 14:45:46;;;;;;;6.00;1.37;;;13.40;59.50;;;;;;5124455;28;20480;-87
2022/02/06 14:48:14;;;;;;;11.10;1.37;;;13.60;59.00;;;;;;5119809;28;20468;-87